Time;durP1;ratioP1;P1;durP2;ratioP2;P2;SDS_P1;SDS_P2;PMS_P1;PMS_P2;Temp;Humidity;BMP_temperature;BMP_pressure;BME280_temperature;BME280_humidity;BME280_pressure;Samples;Min_cycle;Max_cycle;Signal;HPM_P1;HPM_P2
2021/10/20 00:00:24;;;;;;;;;;;;;;;18.49;nan;97717.47;5095535;28;19928;-76
2021/10/20 00:02:53;;;;;;;;;;;;;;;18.44;nan;97712.56;5095840;28;19930;-76
2021/10/20 00:05:20;;;;;;;;;;;;;;;18.36;nan;97705.03;5095471;28;19928;-76
2021/10/20 00:07:48;;;;;;;;;;;;;;;18.53;nan;97703.84;5095757;28;19924;-76
2021/10/20 00:10:16;;;;;;;;;;;;;;;18.48;nan;97701.75;5095728;28;19924;-76
2021/10/20 00:12:44;;;;;;;;;;;;;;;18.31;nan;97686.75;5095329;28;19924;-76
2021/10/20 00:15:12;;;;;;;;;;;;;;;18.41;nan;97696.59;5095622;28;19928;-76
2021/10/20 00:17:40;;;;;;;;;;;;;;;18.43;nan;97696.88;5073976;28;19931;-76
2021/10/20 00:20:11;;;;;;;;;;;;;;;18.50;nan;97687.91;5085323;28;19968;-76
2021/10/20 00:22:39;;;;;;;;;;;;;;;18.11;nan;97675.63;5095345;28;19932;-76
2021/10/20 00:25:07;;;;;;;;;;;;;;;17.79;nan;97669.31;5095393;28;19928;-76
2021/10/20 00:27:34;;;;;;;;;;;;;;;18.31;nan;97661.31;5095103;28;19930;-76
2021/10/20 00:30:02;;;;;;;;;;;;;;;18.31;nan;97655.66;5060641;28;19976;-76
2021/10/20 00:32:29;;;;;;;;;;;;;;;18.17;nan;97653.03;5095212;28;19924;-76
2021/10/20 00:34:57;;;;;;;;;;;;;;;17.88;nan;97646.50;5075731;28;19924;-76
2021/10/20 00:37:24;;;;;;;;;;;;;;;17.97;nan;97645.50;5095252;28;20647;-76
2021/10/20 00:39:51;;;;;;;;;;;;;;;18.07;nan;97666.59;5095056;28;19931;-76
2021/10/20 00:42:23;;;;;;;;;;;;;;;18.11;nan;97655.84;5094875;28;20440;-76
2021/10/20 00:44:57;;;;;;;;;;;;;;;18.02;nan;97653.25;5094959;28;19928;-76
2021/10/20 00:47:25;;;;;;;;;;;;;;;18.09;nan;97678.19;5094905;28;19924;-76
2021/10/20 00:49:52;;;;;;;;;;;;;;;17.93;nan;97695.84;5095013;28;19925;-76
2021/10/20 00:52:21;;;;;;;;;;;;;;;18.30;nan;97698.56;5060274;28;19924;-76
2021/10/20 00:54:50;;;;;;;;;;;;;;;17.96;nan;97686.34;5094802;28;19924;-76
2021/10/20 00:57:18;;;;;;;;;;;;;;;18.29;nan;97669.53;5094554;28;19934;-76
2021/10/20 00:59:45;;;;;;;;;;;;;;;18.18;nan;97671.53;5094745;28;19931;-76
2021/10/20 01:02:13;;;;;;;;;;;;;;;18.31;nan;97657.72;5094563;28;19924;-76
2021/10/20 01:04:40;;;;;;;;;;;;;;;18.21;nan;97643.03;5073181;28;19933;-76
2021/10/20 01:07:07;;;;;;;;;;;;;;;17.67;nan;97642.28;5089643;28;19928;-76
2021/10/20 01:09:35;;;;;;;;;;;;;;;18.00;nan;97638.84;5073231;28;19924;-76
2021/10/20 01:12:02;;;;;;;;;;;;;;;17.42;nan;97623.34;5087825;28;20395;-76
2021/10/20 01:14:30;;;;;;;;;;;;;;;17.73;nan;97620.50;5094359;28;19931;-76
2021/10/20 01:16:57;;;;;;;;;;;;;;;17.54;nan;97627.03;5094483;28;19928;-76
2021/10/20 01:19:24;;;;;;;;;;;;;;;17.76;nan;97618.69;5094408;28;19924;-76
2021/10/20 01:21:52;;;;;;;;;;;;;;;17.82;nan;97616.66;5094422;28;19928;-76
2021/10/20 01:24:21;;;;;;;;;;;;;;;17.64;nan;97625.56;5094190;28;19935;-76
2021/10/20 01:26:49;;;;;;;;;;;;;;;17.78;nan;97618.97;5072796;28;19924;-76
2021/10/20 01:29:16;;;;;;;;;;;;;;;17.54;nan;97612.91;5089449;28;19931;-76
2021/10/20 01:31:55;;;;;;;;;;;;;;;17.65;nan;97607.31;5075989;28;19924;-76
2021/10/20 01:34:22;;;;;;;;;;;;;;;17.61;nan;97615.28;5093821;28;19924;-76
2021/10/20 01:36:51;;;;;;;;;;;;;;;17.75;nan;97611.50;5094062;28;20379;-76
2021/10/20 01:39:19;;;;;;;;;;;;;;;17.53;nan;97608.56;5094098;28;19931;-76
2021/10/20 01:41:46;;;;;;;;;;;;;;;17.55;nan;97600.34;5093728;28;19930;-76
2021/10/20 01:44:14;;;;;;;;;;;;;;;17.44;nan;97589.00;5076048;28;19924;-76
2021/10/20 01:46:41;;;;;;;;;;;;;;;17.15;nan;97586.47;5093782;28;19930;-76
2021/10/20 01:49:09;;;;;;;;;;;;;;;17.38;nan;97576.88;5093984;28;19924;-76
2021/10/20 01:51:36;;;;;;;;;;;;;;;17.66;nan;97564.47;5093932;28;19924;-76
2021/10/20 01:54:04;;;;;;;;;;;;;;;17.76;nan;97556.56;5093244;28;19927;-76
2021/10/20 01:56:32;;;;;;;;;;;;;;;17.46;nan;97544.09;5093864;28;19924;-76
2021/10/20 01:58:59;;;;;;;;;;;;;;;17.15;nan;97535.66;5093554;28;19924;-76
2021/10/20 02:01:27;;;;;;;;;;;;;;;17.13;nan;97541.06;5093666;28;19924;-76
2021/10/20 02:03:54;;;;;;;;;;;;;;;17.38;nan;97543.75;5075810;28;20310;-76
2021/10/20 02:06:21;;;;;;;;;;;;;;;17.21;nan;97536.47;5093842;28;19924;-76
2021/10/20 02:08:49;;;;;;;;;;;;;;;17.15;nan;97536.44;5093275;28;19928;-76
2021/10/20 02:11:19;;;;;;;;;;;;;;;17.14;nan;97531.31;5093717;28;19933;-76
2021/10/20 02:13:46;;;;;;;;;;;;;;;16.83;nan;97525.69;5093614;28;20006;-76
2021/10/20 02:16:13;;;;;;;;;;;;;;;16.96;nan;97540.16;5093596;28;19924;-76
2021/10/20 02:18:40;;;;;;;;;;;;;;;16.99;nan;97533.53;5093563;28;19924;-76
2021/10/20 02:21:08;;;;;;;;;;;;;;;17.05;nan;97540.75;5093323;28;20421;-76
2021/10/20 02:23:35;;;;;;;;;;;;;;;16.87;nan;97538.31;5093431;28;20363;-76
2021/10/20 02:26:02;;;;;;;;;;;;;;;16.89;nan;97543.47;5093328;28;19928;-76
2021/10/20 02:28:29;;;;;;;;;;;;;;;16.64;nan;97541.44;5093341;28;19931;-76
2021/10/20 02:30:56;;;;;;;;;;;;;;;16.94;nan;97545.53;5093215;28;19931;-76
2021/10/20 02:33:23;;;;;;;;;;;;;;;16.61;nan;97537.59;5075480;28;19925;-75
2021/10/20 02:35:51;;;;;;;;;;;;;;;16.67;nan;97537.63;5093304;28;19931;-76
2021/10/20 02:38:18;;;;;;;;;;;;;;;16.54;nan;97538.03;5093083;28;19928;-75
2021/10/20 02:40:45;;;;;;;;;;;;;;;16.45;nan;97518.47;5093407;28;19924;-76
2021/10/20 02:43:13;;;;;;;;;;;;;;;16.57;nan;97514.47;5093120;28;19928;-76
2021/10/20 02:45:41;;;;;;;;;;;;;;;16.61;nan;97508.63;5094733;28;19924;-76
2021/10/20 02:48:08;;;;;;;;;;;;;;;17.00;nan;97501.97;5097149;28;19932;-76
2021/10/20 02:50:35;;;;;;;;;;;;;;;17.16;nan;97497.72;5097158;28;19976;-75
2021/10/20 02:53:03;;;;;;;;;;;;;;;16.72;nan;97491.78;5096772;28;20326;-76
2021/10/20 02:55:30;;;;;;;;;;;;;;;16.64;nan;97485.84;5097085;28;19928;-76
2021/10/20 02:57:57;;;;;;;;;;;;;;;16.95;nan;97482.22;5096881;28;19935;-76
2021/10/20 03:00:24;;;;;;;;;;;;;;;16.89;nan;97484.97;5097001;28;20252;-76
2021/10/20 03:02:52;;;;;;;;;;;;;;;17.03;nan;97483.25;5096954;28;19930;-76
2021/10/20 03:05:19;;;;;;;;;;;;;;;16.60;nan;97484.53;5096751;28;19931;-76
2021/10/20 03:07:49;;;;;;;;;;;;;;;16.77;nan;97476.94;5096707;28;19924;-76
2021/10/20 03:10:17;;;;;;;;;;;;;;;16.88;nan;97479.84;5094166;28;19928;-76
2021/10/20 03:12:46;;;;;;;;;;;;;;;16.80;nan;97481.56;5107766;28;19998;-76
2021/10/20 03:15:13;;;;;;;;;;;;;;;16.85;nan;97461.88;5116780;28;19924;-76
2021/10/20 03:17:40;;;;;;;;;;;;;;;16.68;nan;97463.81;5099140;28;19927;-76
2021/10/20 03:20:09;;;;;;;;;;;;;;;16.80;nan;97459.00;5116946;28;19928;-76
2021/10/20 03:22:40;;;;;;;;;;;;;;;16.78;nan;97458.75;5116779;28;20298;-76
2021/10/20 03:25:08;;;;;;;;;;;;;;;16.88;nan;97460.88;5116995;28;19953;-76
2021/10/20 03:27:40;;;;;;;;;;;;;;;16.90;nan;97451.91;5116820;28;19924;-76
2021/10/20 03:30:08;;;;;;;;;;;;;;;16.87;nan;97458.56;5070830;28;20286;-76
2021/10/20 03:32:36;;;;;;;;;;;;;;;16.85;nan;97464.69;5116951;28;19924;-76
2021/10/20 03:35:04;;;;;;;;;;;;;;;16.94;nan;97447.56;5116612;28;19923;-76
2021/10/20 03:37:32;;;;;;;;;;;;;;;17.00;nan;97441.94;5064993;28;19931;-76
2021/10/20 03:39:59;;;;;;;;;;;;;;;17.03;nan;97429.66;5116423;28;19928;-76
2021/10/20 03:42:27;;;;;;;;;;;;;;;16.80;nan;97409.03;5098322;28;20294;-76
2021/10/20 03:44:54;;;;;;;;;;;;;;;16.65;nan;97416.09;5116365;28;20377;-76
2021/10/20 03:47:23;;;;;;;;;;;;;;;16.78;nan;97428.50;5116477;28;20383;-76
2021/10/20 03:49:50;;;;;;;;;;;;;;;16.99;nan;97429.13;5116440;28;19928;-76
2021/10/20 03:52:18;;;;;;;;;;;;;;;16.92;nan;97421.91;5098280;28;19928;-76
2021/10/20 03:54:45;;;;;;;;;;;;;;;16.68;nan;97406.63;5116475;28;19923;-76
2021/10/20 03:57:13;;;;;;;;;;;;;;;16.88;nan;97409.31;5115692;28;19927;-76
2021/10/20 03:59:42;;;;;;;;;;;;;;;16.42;nan;97403.88;5116440;28;19924;-76
2021/10/20 04:02:10;;;;;;;;;;;;;;;16.64;nan;97381.53;5116175;28;20423;-76
2021/10/20 04:04:37;;;;;;;;;;;;;;;16.34;nan;97365.41;5115961;28;19928;-75
2021/10/20 04:07:04;;;;;;;;;;;;;;;16.37;nan;97350.31;5097892;28;19924;-76
2021/10/20 04:09:32;;;;;;;;;;;;;;;16.49;nan;97354.75;5098172;28;19984;-76
2021/10/20 04:11:59;;;;;;;;;;;;;;;16.27;nan;97361.00;5097754;28;19930;-76
2021/10/20 04:14:26;;;;;;;;;;;;;;;16.26;nan;97382.00;5097766;28;19931;-76
2021/10/20 04:16:53;;;;;;;;;;;;;;;16.20;nan;97387.59;5115948;28;20283;-76
2021/10/20 04:19:21;;;;;;;;;;;;;;;16.10;nan;97389.03;5115270;28;20378;-76
2021/10/20 04:21:48;;;;;;;;;;;;;;;16.20;nan;97381.97;5115825;28;19924;-76
2021/10/20 04:24:15;;;;;;;;;;;;;;;16.51;nan;97372.72;5115465;28;19931;-76
2021/10/20 04:26:43;;;;;;;;;;;;;;;16.41;nan;97362.09;5097551;28;20383;-76
2021/10/20 04:29:10;;;;;;;;;;;;;;;16.44;nan;97352.69;5115580;28;19923;-76
2021/10/20 04:31:37;;;;;;;;;;;;;;;16.76;nan;97351.31;5115645;28;20435;-76
2021/10/20 04:34:05;;;;;;;;;;;;;;;16.74;nan;97354.66;5097426;28;19924;-76
2021/10/20 04:36:32;;;;;;;;;;;;;;;16.67;nan;97360.78;5115338;28;19924;-76
2021/10/20 04:38:59;;;;;;;;;;;;;;;16.68;nan;97350.25;5115484;28;19927;-76
2021/10/20 04:41:26;;;;;;;;;;;;;;;16.74;nan;97343.38;5115192;28;19930;-76
2021/10/20 04:43:53;;;;;;;;;;;;;;;16.72;nan;97345.16;5115491;28;19923;-76
2021/10/20 04:46:20;;;;;;;;;;;;;;;15.81;nan;97341.44;5115126;28;19927;-76
2021/10/20 04:48:47;;;;;;;;;;;;;;;16.44;nan;97338.59;5096883;28;19938;-76
2021/10/20 04:51:15;;;;;;;;;;;;;;;16.46;nan;97333.22;5115136;28;20363;-76
2021/10/20 04:53:43;;;;;;;;;;;;;;;16.45;nan;97323.97;5115028;28;20033;-76
2021/10/20 04:56:10;;;;;;;;;;;;;;;16.34;nan;97323.13;5096886;28;19923;-76
2021/10/20 04:58:37;;;;;;;;;;;;;;;15.92;nan;97323.84;5114863;28;19934;-76
2021/10/20 05:01:05;;;;;;;;;;;;;;;16.15;nan;97326.34;5115075;28;19924;-76
2021/10/20 05:03:32;;;;;;;;;;;;;;;16.25;nan;97319.22;5114624;28;19924;-76
2021/10/20 05:05:59;;;;;;;;;;;;;;;16.46;nan;97310.66;5114883;28;19927;-76
2021/10/20 05:08:27;;;;;;;;;;;;;;;16.71;nan;97301.28;5079177;28;19973;-76
2021/10/20 05:10:56;;;;;;;;;;;;;;;16.71;nan;97295.66;5114755;28;19930;-76
2021/10/20 05:13:23;;;;;;;;;;;;;;;16.90;nan;97288.31;5114744;28;19924;-76
2021/10/20 05:15:51;;;;;;;;;;;;;;;16.83;nan;97277.50;5096698;28;19935;-76
2021/10/20 05:18:18;;;;;;;;;;;;;;;16.86;nan;97265.19;5114533;28;19928;-76
2021/10/20 05:20:47;;;;;;;;;;;;;;;16.31;nan;97254.47;5114473;28;20363;-76
2021/10/20 05:23:14;;;;;;;;;;;;;;;16.06;nan;97260.97;5114578;28;19924;-76
2021/10/20 05:25:41;;;;;;;;;;;;;;;16.05;nan;97270.72;5096301;28;19923;-76
2021/10/20 05:28:09;;;;;;;;;;;;;;;15.91;nan;97271.63;5100457;28;19923;-76
2021/10/20 05:30:36;;;;;;;;;;;;;;;16.37;nan;97263.72;5114460;28;19924;-76
2021/10/20 05:33:03;;;;;;;;;;;;;;;16.33;nan;97262.41;5095892;28;19931;-76
2021/10/20 05:35:30;;;;;;;;;;;;;;;16.05;nan;97257.38;5114388;28;19930;-75
2021/10/20 05:37:58;;;;;;;;;;;;;;;16.15;nan;97258.72;5095980;28;19930;-76
2021/10/20 05:40:25;;;;;;;;;;;;;;;16.10;nan;97247.41;5114298;28;19924;-76
2021/10/20 05:42:53;;;;;;;;;;;;;;;16.19;nan;97244.41;5114182;28;19924;-76
2021/10/20 05:45:20;;;;;;;;;;;;;;;16.07;nan;97237.94;5114135;28;19927;-76
2021/10/20 05:47:48;;;;;;;;;;;;;;;16.07;nan;97231.53;5114030;28;19928;-76
2021/10/20 05:50:15;;;;;;;;;;;;;;;15.72;nan;97220.56;5086217;28;19930;-76
2021/10/20 05:52:43;;;;;;;;;;;;;;;16.00;nan;97217.91;5114096;28;20416;-76
2021/10/20 05:55:10;;;;;;;;;;;;;;;15.97;nan;97208.44;5113762;28;19923;-76
2021/10/20 05:57:38;;;;;;;;;;;;;;;16.21;nan;97200.38;5113809;28;19927;-76
2021/10/20 06:00:07;;;;;;;;;;;;;;;16.18;nan;97201.38;5095742;28;19924;-75
2021/10/20 06:02:37;;;;;;;;;;;;;;;16.22;nan;97199.06;5113870;28;19924;-76
2021/10/20 06:05:06;;;;;;;;;;;;;;;16.08;nan;97191.56;5113750;28;19928;-76
2021/10/20 06:07:37;;;;;;;;;;;;;;;16.03;nan;97178.25;5113860;28;19923;-75
2021/10/20 06:10:05;;;;;;;;;;;;;;;15.58;nan;97190.53;5113761;28;19923;-83
2021/10/20 06:12:32;;;;;;;;;;;;;;;15.48;nan;97189.16;5095040;28;19924;-76
2021/10/20 06:15:00;;;;;;;;;;;;;;;15.60;nan;97179.53;5094294;28;20379;-76
2021/10/20 06:17:27;;;;;;;;;;;;;;;15.42;nan;97190.41;5075064;28;19924;-76
2021/10/20 06:19:54;;;;;;;;;;;;;;;15.42;nan;97196.81;5077698;28;20470;-76
2021/10/20 06:22:22;;;;;;;;;;;;;;;15.27;nan;97201.00;5075437;28;19924;-76
2021/10/20 06:24:49;;;;;;;;;;;;;;;15.63;nan;97203.09;5077365;28;19932;-76
2021/10/20 06:27:16;;;;;;;;;;;;;;;15.94;nan;97195.38;5091441;28;19924;-76
2021/10/20 06:29:44;;;;;;;;;;;;;;;16.27;nan;97195.53;5076340;28;19924;-76
2021/10/20 06:32:11;;;;;;;;;;;;;;;16.13;nan;97190.84;5099415;28;19924;-76
2021/10/20 06:34:38;;;;;;;;;;;;;;;16.49;nan;97196.91;5103166;28;19924;-76
2021/10/20 06:37:05;;;;;;;;;;;;;;;16.41;nan;97187.38;5095116;28;19924;-76
2021/10/20 06:39:32;;;;;;;;;;;;;;;16.49;nan;97185.63;5097123;28;20321;-76
2021/10/20 06:42:00;;;;;;;;;;;;;;;16.35;nan;97189.41;5076028;28;19924;-76
2021/10/20 06:44:27;;;;;;;;;;;;;;;16.59;nan;97186.94;5092532;28;19946;-76
2021/10/20 06:46:56;;;;;;;;;;;;;;;16.47;nan;97182.53;5094562;28;19928;-76
2021/10/20 06:49:23;;;;;;;;;;;;;;;16.45;nan;97168.97;5093644;28;19924;-76
2021/10/20 06:51:50;;;;;;;;;;;;;;;16.26;nan;97167.84;5093387;28;19924;-76
2021/10/20 06:54:18;;;;;;;;;;;;;;;16.34;nan;97159.69;5092543;28;19928;-76
2021/10/20 06:56:46;;;;;;;;;;;;;;;16.28;nan;97176.59;5097379;28;20350;-76
2021/10/20 06:59:15;;;;;;;;;;;;;;;15.88;nan;97165.63;5092904;28;19924;-75
2021/10/20 07:01:42;;;;;;;;;;;;;;;15.86;nan;97171.75;5076743;28;19925;-76
2021/10/20 07:04:13;;;;;;;;;;;;;;;15.49;nan;97175.88;5093702;28;19949;-76
2021/10/20 07:06:40;;;;;;;;;;;;;;;15.64;nan;97168.81;5076096;28;20359;-81
2021/10/20 07:09:10;;;;;;;;;;;;;;;15.60;nan;97162.63;5073053;28;19946;-76
2021/10/20 07:11:38;;;;;;;;;;;;;;;15.71;nan;97173.97;5087460;28;19936;-77
2021/10/20 07:14:05;;;;;;;;;;;;;;;15.97;nan;97171.03;5102234;28;19928;-77
2021/10/20 07:16:34;;;;;;;;;;;;;;;15.68;nan;97172.16;5090187;28;19947;-78
2021/10/20 07:19:06;;;;;;;;;;;;;;;15.95;nan;97168.72;5092394;28;20333;-78
2021/10/20 07:21:36;;;;;;;;;;;;;;;15.90;nan;97163.84;5110073;28;19923;-77
2021/10/20 07:24:03;;;;;;;;;;;;;;;16.31;nan;97152.25;5109525;28;20447;-78
2021/10/20 07:26:30;;;;;;;;;;;;;;;16.16;nan;97153.22;5094131;28;19940;-78
2021/10/20 07:28:59;;;;;;;;;;;;;;;15.83;nan;97143.81;5077059;28;19932;-77
2021/10/20 07:31:29;;;;;;;;;;;;;;;16.21;nan;97137.59;5085599;28;20274;-83
2021/10/20 07:33:57;;;;;;;;;;;;;;;16.51;nan;97135.16;5084379;28;19928;-77
2021/10/20 07:36:24;;;;;;;;;;;;;;;16.56;nan;97138.00;5088534;28;19924;-77
2021/10/20 07:38:51;;;;;;;;;;;;;;;16.51;nan;97132.34;5086228;28;19925;-77
2021/10/20 07:41:18;;;;;;;;;;;;;;;16.45;nan;97137.97;5078068;28;19951;-78
2021/10/20 07:43:46;;;;;;;;;;;;;;;16.72;nan;97133.66;5096876;28;20318;-78
2021/10/20 07:46:13;;;;;;;;;;;;;;;16.66;nan;97136.47;5098438;28;19928;-78
2021/10/20 07:48:40;;;;;;;;;;;;;;;16.50;nan;97130.78;5094075;28;19924;-78
2021/10/20 07:51:07;;;;;;;;;;;;;;;16.52;nan;97136.69;5096838;28;19928;-79
2021/10/20 07:53:35;;;;;;;;;;;;;;;16.23;nan;97129.41;5101919;28;19946;-79
2021/10/20 07:56:03;;;;;;;;;;;;;;;16.55;nan;97115.94;5102302;28;19924;-79
2021/10/20 07:58:30;;;;;;;;;;;;;;;16.55;nan;97118.78;5105928;28;19932;-77
2021/10/20 08:00:57;;;;;;;;;;;;;;;16.59;nan;97110.81;5103776;28;19943;-77
2021/10/20 08:03:25;;;;;;;;;;;;;;;16.38;nan;97120.75;5074214;28;19924;-78
2021/10/20 08:05:52;;;;;;;;;;;;;;;16.64;nan;97122.13;5105131;28;19924;-78
2021/10/20 08:08:19;;;;;;;;;;;;;;;16.77;nan;97125.22;5102818;28;20302;-77
2021/10/20 08:10:47;;;;;;;;;;;;;;;16.58;nan;97126.22;5101613;28;20392;-76
2021/10/20 08:13:14;;;;;;;;;;;;;;;16.23;nan;97129.41;5096079;28;19924;-76
2021/10/20 08:15:42;;;;;;;;;;;;;;;16.44;nan;97124.38;5096901;28;20661;-77
2021/10/20 08:18:09;;;;;;;;;;;;;;;16.56;nan;97137.22;5077461;28;19928;-77
2021/10/20 08:20:37;;;;;;;;;;;;;;;16.10;nan;97132.69;5077105;28;19925;-76
2021/10/20 08:23:05;;;;;;;;;;;;;;;16.02;nan;97136.50;5096807;28;19924;-77
2021/10/20 08:25:35;;;;;;;;;;;;;;;16.38;nan;97129.19;5078327;28;19973;-76
2021/10/20 08:28:05;;;;;;;;;;;;;;;16.24;nan;97126.09;5096142;28;19935;-77
2021/10/20 08:30:34;;;;;;;;;;;;;;;16.07;nan;97135.75;5098077;28;19924;-77
2021/10/20 08:33:02;;;;;;;;;;;;;;;16.15;nan;97117.88;5084745;28;19930;-76
2021/10/20 08:35:29;;;;;;;;;;;;;;;16.61;nan;97128.78;5106828;28;19928;-76
2021/10/20 08:38:00;;;;;;;;;;;;;;;16.35;nan;97118.94;5096382;28;19935;-76
2021/10/20 08:40:29;;;;;;;;;;;;;;;16.93;nan;97112.41;5079169;28;19924;-76
2021/10/20 08:42:57;;;;;;;;;;;;;;;16.95;nan;97104.22;5097939;28;19931;-76
2021/10/20 08:45:25;;;;;;;;;;;;;;;17.21;nan;97110.34;5096664;28;19924;-76
2021/10/20 08:47:54;;;;;;;;;;;;;;;16.90;nan;97110.63;5077462;28;19924;-76
2021/10/20 08:50:22;;;;;;;;;;;;;;;16.17;nan;97117.38;5104342;28;19949;-76
2021/10/20 08:52:50;;;;;;;;;;;;;;;16.39;nan;97099.75;5095608;28;19942;-77
2021/10/20 08:55:18;;;;;;;;;;;;;;;16.10;nan;97087.63;5094484;28;19928;-77
2021/10/20 08:57:46;;;;;;;;;;;;;;;16.37;nan;97096.66;5093740;28;20290;-77
2021/10/20 09:00:14;;;;;;;;;;;;;;;16.33;nan;97093.34;5099025;28;19923;-76
2021/10/20 09:02:41;;;;;;;;;;;;;;;16.41;nan;97083.09;5087761;28;20299;-74
2021/10/20 09:05:11;;;;;;;;;;;;;;;16.73;nan;97078.81;5074913;28;19932;-74
2021/10/20 09:07:44;;;;;;;;;;;;;;;16.58;nan;97062.16;5099513;28;19928;-74
2021/10/20 09:10:12;;;;;;;;;;;;;;;16.31;nan;97068.50;5102788;28;19924;-74
2021/10/20 09:12:40;;;;;;;;;;;;;;;15.50;nan;97062.81;5107405;28;20294;-74
2021/10/20 09:15:11;;;;;;;;;;;;;;;16.61;nan;97043.44;5101906;28;19924;-73
2021/10/20 09:17:57;;;;;;;;;;;;;;;16.71;nan;97033.44;5088185;28;19931;-75
2021/10/20 09:20:29;;;;;;;;;;;;;;;16.07;nan;97029.47;5107552;28;19969;-75
2021/10/20 09:23:02;;;;;;;;;;;;;;;16.63;nan;97035.25;5092726;28;19931;-75
2021/10/20 09:25:33;;;;;;;;;;;;;;;17.02;nan;97036.00;5105115;28;19924;-75
2021/10/20 09:28:02;;;;;;;;;;;;;;;16.32;nan;97016.47;5097973;28;20293;-75
2021/10/20 09:30:30;;;;;;;;;;;;;;;16.32;nan;97035.44;5087149;28;19928;-76
2021/10/20 09:32:58;;;;;;;;;;;;;;;16.39;nan;97023.66;5102385;28;19923;-75
2021/10/20 09:35:29;;;;;;;;;;;;;;;16.81;nan;97029.09;5088187;28;19924;-76
2021/10/20 09:37:59;;;;;;;;;;;;;;;16.77;nan;97018.06;5101484;28;19931;-76
2021/10/20 09:40:33;;;;;;;;;;;;;;;15.83;nan;97031.97;5095359;28;19956;-76
2021/10/20 09:43:00;;;;;;;;;;;;;;;16.46;nan;97023.19;5094269;28;19977;-75
2021/10/20 09:45:32;;;;;;;;;;;;;;;15.94;nan;97012.31;5102392;28;19924;-75
2021/10/20 09:48:11;;;;;;;;;;;;;;;15.94;nan;97009.50;5085213;28;19928;-76
2021/10/20 09:50:52;;;;;;;;;;;;;;;16.81;nan;97012.16;5083654;28;19925;-76
2021/10/20 09:53:19;;;;;;;;;;;;;;;17.01;nan;97006.25;5063153;28;19940;-76
2021/10/20 09:55:46;;;;;;;;;;;;;;;16.65;nan;97015.75;5096977;28;19924;-76
2021/10/20 09:58:14;;;;;;;;;;;;;;;16.81;nan;97004.44;5104220;28;19924;-76
2021/10/20 10:00:42;;;;;;;;;;;;;;;17.00;nan;97013.16;5084223;28;19924;-76
2021/10/20 10:03:10;;;;;;;;;;;;;;;17.07;nan;96998.53;5102271;28;19931;-76
2021/10/20 10:05:37;;;;;;;;;;;;;;;17.01;nan;96983.69;5108403;28;19924;-75
2021/10/20 10:08:04;;;;;;;;;;;;;;;16.97;nan;96981.13;5082923;28;19931;-75
2021/10/20 10:10:32;;;;;;;;;;;;;;;17.61;nan;96969.41;5107467;28;19924;-75
2021/10/20 10:13:19;;;;;;;;;;;;;;;17.78;nan;96960.84;5105542;28;19924;-75
2021/10/20 10:15:47;;;;;;;;;;;;;;;17.79;nan;96951.84;5091351;28;19934;-75
2021/10/20 10:18:14;;;;;;;;;;;;;;;17.58;nan;96944.25;5104376;28;19924;-75
2021/10/20 10:20:44;;;;;;;;;;;;;;;16.91;nan;96940.88;5112271;28;19924;-75
2021/10/20 10:23:21;;;;;;;;;;;;;;;17.06;nan;96937.75;5106507;28;19931;-75
2021/10/20 10:25:57;;;;;;;;;;;;;;;16.94;nan;96939.06;5095388;28;19928;-75
2021/10/20 10:28:26;;;;;;;;;;;;;;;16.83;nan;96933.44;5092116;28;19924;-75
2021/10/20 10:30:53;;;;;;;;;;;;;;;16.72;nan;96939.13;5097719;28;19930;-75
2021/10/20 10:33:20;;;;;;;;;;;;;;;16.60;nan;96929.88;5100153;28;19928;-75
2021/10/20 10:36:03;;;;;;;;;;;;;;;16.97;nan;96927.53;5096787;28;20279;-75
2021/10/20 10:38:37;;;;;;;;;;;;;;;17.12;nan;96922.34;5093922;28;19932;-75
2021/10/20 10:41:23;;;;;;;;;;;;;;;16.46;nan;96916.84;5075306;28;20555;-75
2021/10/20 10:44:09;;;;;;;;;;;;;;;16.00;nan;96928.59;5093103;28;19928;-76
2021/10/20 10:46:55;;;;;;;;;;;;;;;16.87;nan;96914.22;5103636;28;19985;-75
2021/10/20 10:49:28;;;;;;;;;;;;;;;16.64;nan;96921.19;5093659;28;19939;-76
2021/10/20 10:52:16;;;;;;;;;;;;;;;16.40;nan;96929.38;5092162;28;19924;-75
2021/10/20 10:54:55;;;;;;;;;;;;;;;16.37;nan;96896.59;5103396;28;19924;-76
2021/10/20 10:57:23;;;;;;;;;;;;;;;16.50;nan;96916.56;5095451;28;20413;-76
2021/10/20 10:59:52;;;;;;;;;;;;;;;16.80;nan;96920.38;5094875;28;19939;-78
2021/10/20 11:02:38;;;;;;;;;;;;;;;16.84;nan;96904.72;5100554;28;19946;-78
2021/10/20 11:05:06;;;;;;;;;;;;;;;17.21;nan;96905.13;5079446;28;19931;-78
2021/10/20 11:07:34;;;;;;;;;;;;;;;17.23;nan;96879.22;5085821;28;19928;-78
2021/10/20 11:10:01;;;;;;;;;;;;;;;17.22;nan;96891.78;5101368;28;19924;-78
2021/10/20 11:12:30;;;;;;;;;;;;;;;17.45;nan;96879.91;5091666;28;19930;-77
2021/10/20 11:14:57;;;;;;;;;;;;;;;17.51;nan;96874.22;5105514;28;19924;-77
2021/10/20 11:17:24;;;;;;;;;;;;;;;17.80;nan;96867.88;5111360;28;19928;-77
2021/10/20 11:19:51;;;;;;;;;;;;;;;17.64;nan;96861.06;5111369;28;19930;-77
2021/10/20 11:22:22;;;;;;;;;;;;;;;17.47;nan;96856.78;5116943;28;19923;-77
2021/10/20 11:24:52;;;;;;;;;;;;;;;17.43;nan;96853.47;5116884;28;19923;-77
2021/10/20 11:27:23;;;;;;;;;;;;;;;17.66;nan;96852.06;5098531;28;19928;-77
2021/10/20 11:29:54;;;;;;;;;;;;;;;17.73;nan;96843.81;5102762;28;19927;-77
2021/10/20 11:32:22;;;;;;;;;;;;;;;17.68;nan;96849.47;5065108;28;19923;-76
2021/10/20 11:34:49;;;;;;;;;;;;;;;17.63;nan;96848.22;5098261;28;19930;-76
2021/10/20 11:37:18;;;;;;;;;;;;;;;17.52;nan;96858.81;5098588;28;19934;-76
2021/10/20 11:39:55;;;;;;;;;;;;;;;17.35;nan;96861.72;5116523;28;19928;-76
2021/10/20 11:42:23;;;;;;;;;;;;;;;18.05;nan;96846.13;5116627;28;20363;-76
2021/10/20 11:44:51;;;;;;;;;;;;;;;18.22;nan;96841.84;5116451;28;19928;-76
2021/10/20 11:47:19;;;;;;;;;;;;;;;17.84;nan;96840.88;5098382;28;20423;-76
2021/10/20 11:49:50;;;;;;;;;;;;;;;17.81;nan;96838.34;5116224;28;19924;-76
2021/10/20 11:52:18;;;;;;;;;;;;;;;17.49;nan;96826.00;5116394;28;20399;-76
2021/10/20 11:54:45;;;;;;;;;;;;;;;18.12;nan;96832.19;5097982;28;19931;-76
2021/10/20 11:57:16;;;;;;;;;;;;;;;17.70;nan;96813.00;5116315;28;19982;-76
2021/10/20 11:59:46;;;;;;;;;;;;;;;17.93;nan;96811.56;5115477;28;20463;-76
2021/10/20 12:02:14;;;;;;;;;;;;;;;17.20;nan;96821.78;5098145;28;19923;-76
2021/10/20 12:04:42;;;;;;;;;;;;;;;17.05;nan;96814.91;5116008;28;19924;-76
2021/10/20 12:07:13;;;;;;;;;;;;;;;16.96;nan;96820.84;5115730;28;19924;-76
2021/10/20 12:09:42;;;;;;;;;;;;;;;17.07;nan;96829.28;5116006;28;19934;-76
2021/10/20 12:12:11;;;;;;;;;;;;;;;17.21;nan;96822.53;5115862;28;19930;-76
2021/10/20 12:14:39;;;;;;;;;;;;;;;16.27;nan;96832.06;5116073;28;19930;-76
2021/10/20 12:17:07;;;;;;;;;;;;;;;16.71;nan;96821.97;5111900;28;19954;-76
2021/10/20 12:19:36;;;;;;;;;;;;;;;16.41;nan;96832.28;5097526;28;19928;-76
2021/10/20 12:22:06;;;;;;;;;;;;;;;16.17;nan;96827.19;5096826;28;19928;-75
2021/10/20 12:24:35;;;;;;;;;;;;;;;16.42;nan;96828.94;5097731;28;19924;-75
2021/10/20 12:27:07;;;;;;;;;;;;;;;16.69;nan;96807.63;5095627;28;19946;-75
2021/10/20 12:29:39;;;;;;;;;;;;;;;16.80;nan;96799.13;5094280;28;19928;-75
2021/10/20 12:32:07;;;;;;;;;;;;;;;16.66;nan;96788.94;5094456;28;19977;-75
2021/10/20 12:34:34;;;;;;;;;;;;;;;16.71;nan;96774.81;5109635;28;20296;-76
2021/10/20 12:37:01;;;;;;;;;;;;;;;17.00;nan;96768.53;5112700;28;20426;-76
2021/10/20 12:39:30;;;;;;;;;;;;;;;17.02;nan;96776.47;5109761;28;20337;-75
2021/10/20 12:42:00;;;;;;;;;;;;;;;17.32;nan;96766.81;5072656;28;19924;-76
2021/10/20 12:44:30;;;;;;;;;;;;;;;17.07;nan;96784.16;5106941;28;19924;-79
2021/10/20 12:46:58;;;;;;;;;;;;;;;17.19;nan;96791.25;5112533;28;19923;-76
2021/10/20 12:49:32;;;;;;;;;;;;;;;16.95;nan;96791.13;5110525;28;19934;-76
2021/10/20 12:52:00;;;;;;;;;;;;;;;16.67;nan;96782.78;5083169;28;19924;-76
2021/10/20 12:54:34;;;;;;;;;;;;;;;16.86;nan;96782.94;5093250;28;20388;-75
2021/10/20 12:57:01;;;;;;;;;;;;;;;16.51;nan;96780.03;5102078;28;19924;-75
2021/10/20 12:59:30;;;;;;;;;;;;;;;16.89;nan;96771.41;5083779;28;19930;-75
2021/10/20 13:01:57;;;;;;;;;;;;;;;16.46;nan;96772.34;5109968;28;19928;-77
2021/10/20 13:04:24;;;;;;;;;;;;;;;16.78;nan;96762.22;5097062;28;19924;-76
2021/10/20 13:06:56;;;;;;;;;;;;;;;16.97;nan;96749.06;5075861;28;20339;-77
2021/10/20 13:09:24;;;;;;;;;;;;;;;17.04;nan;96752.09;5096896;28;19930;-77
2021/10/20 13:11:53;;;;;;;;;;;;;;;16.98;nan;96736.50;5099218;28;19930;-76
2021/10/20 13:14:20;;;;;;;;;;;;;;;17.35;nan;96728.28;5097172;28;20268;-77